Weather observations for the past three days for
Knoxville
Imperial (Metric)
Date Time (cdt) Wind (mph) Vis. (mi.) Weather Sky Cond. Temperature (ºF) Relative Humidity Wind Chill (°F) Heat Index (°F) Pressure Precipitation (in)
Air Dwpt 6 hour altimeter (in) sea level (mb) 1 hr 3 hr 6 hr
Max. Min.
31 14:55 S 9 G 15 10.00 Fair CLR 89.6 73.4 59% 98 29.91 0.0
31 14:35 SW 8 G 14 10.00 Fair CLR 89.6 73.4 59% 98 29.91 0.0
31 14:15 SW 8 10.00 Fair CLR 91.4 73.4 56% 100 29.92 0.0
31 13:55 SW 8 10.00 Fair CLR 89.6 71.6 55% 96 29.92 0.0
31 13:35 SW 6 10.00 Fair CLR 89.6 71.6 55% 96 29.91 0.0
31 13:15 SW 5 10.00 Fair CLR 87.8 71.6 59% 94 29.91 0.0
31 12:55 W 6 10.00 Fair CLR 87.8 71.6 59% 94 29.91 0.0
31 12:35 SW 5 10.00 Fair CLR 86 71.6 62% 92 29.91 0.0
31 12:15 SW 5 10.00 Fair CLR 86 71.6 62% 92 29.91 0.0
31 11:55 SW 7 10.00 Fair CLR 86 69.8 59% 91 29.91 0.0
31 11:35 SW 8 10.00 Fair CLR 86 69.8 59% 91 29.91 0.0
31 11:15 SW 8 10.00 Fair CLR 84.2 68 58% 87 29.91 0.0
31 10:55 W 9 10.00 Fair CLR 84.2 68 58% 87 29.92 0.0
31 10:35 W 13 G 21 8.00 Fair CLR 84.2 68 58% 87 29.91 0.0
31 10:15 SW 12 G 17 10.00 Fair CLR 82.4 66.2 58% 85 29.91 0.0
31 09:55 SW 15 10.00 Fair CLR 82.4 66.2 58% 85 29.9 0.0
31 09:35 SW 10 G 17 10.00 Fair CLR 82.4 66.2 58% 85 29.89 0.0
31 09:15 SW 9 G 17 10.00 Fair CLR 80.6 66.2 62% 83 29.89 0.0
31 08:55 SW 12 G 20 10.00 Fair CLR 80.6 64.4 58% 82 29.89 0.0
31 08:35 SW 14 G 25 10.00 Fair CLR 78.8 64.4 61% 81 29.88 0.0
31 08:15 SW 15 G 22 10.00 Fair CLR 78.8 64.4 61% 81 29.87 0.0
31 07:55 SW 14 G 21 10.00 Fair CLR 78.8 64.4 61% 81 29.87 0.0
31 07:35 SW 15 10.00 Fair CLR 77 62.6 61% 79 29.87 0.0
31 07:15 SW 14 10.00 Fair CLR 77 62.6 61% 79 29.86 0.0
31 06:55 SW 15 10.00 Fair CLR 77 62.6 61% 79 29.86 0.0
31 06:35 S 12 G 18 10.00 Fair CLR 77 62.6 61% 79 29.86 0.0
31 06:15 S 13 G 18 10.00 Fair CLR 77 64.4 65% 79 29.85 0.0
31 05:55 S 15 10.00 Fair CLR 77 62.6 61% 79 29.85 0.0
31 05:35 S 12 G 21 10.00 Fair CLR 78.8 64.4 61% 81 29.85 0.0
31 05:15 S 15 10.00 Fair CLR 77 64.4 65% 79 29.84 0.0
31 04:55 S 12 10.00 Fair CLR 77 64.4 65% 79 29.85 0.0
31 04:35 S 12 10.00 Fair CLR 78.8 64.4 61% 81 29.85 0.0
31 04:15 S 12 10.00 Fair CLR 78.8 64.4 61% 81 29.85 0.0
31 03:55 S 12 10.00 Fair CLR 78.8 64.4 61% 81 29.85 0.0
31 03:35 S 13 G 18 10.00 Fair CLR 78.8 64.4 61% 81 29.85 0.0
31 03:15 S 13 10.00 Partly Cloudy SCT190 78.8 66.2 65% 81 29.85 0.0
31 02:55 S 10 10.00 Partly Cloudy SCT190 77 66.2 69% 79 29.85 0.0
31 02:35 S 10 10.00 Fair CLR 77 66.2 69% 79 29.85 0.0
31 02:15 S 12 10.00 Fair CLR 78.8 66.2 65% 81 29.85 0.0
31 01:55 S 10 10.00 Fair CLR 78.8 66.2 65% 81 29.86 0.0
31 01:35 S 12 10.00 Fair CLR 78.8 66.2 65% 81 29.86 0.0
31 01:15 S 10 10.00 Fair CLR 78.8 66.2 65% 81 29.86 0.0
31 00:55 S 10 10.00 Fair CLR 78.8 66.2 65% 81 29.86 0.0
31 00:35 S 13 10.00 Fair CLR 80.6 66.2 62% 83 29.85 0.0
31 00:15 S 10 10.00 Fair CLR 78.8 68 70% 81 29.85 0.0
30 23:55 S 12 10.00 Fair CLR 80.6 68 66% 83 29.85 0.0
30 23:35 S 10 10.00 Fair CLR 80.6 68 66% 83 29.85 0.0
30 23:15 S 12 10.00 Fair CLR 80.6 68 66% 83 29.85 0.0
30 22:55 S 10 10.00 Fair CLR 80.6 69.8 70% 84 29.85 0.0
30 22:35 S 10 10.00 Fair CLR 80.6 69.8 70% 84 29.85 0.0
30 22:15 S 7 10.00 A Few Clouds FEW200 80.6 71.6 74% 85 29.86 0.0
30 21:55 SE 7 10.00 Mostly Cloudy BKN190 BKN210 80.6 71.6 74% 85 29.86 0.0
30 21:35 SE 7 10.00 Mostly Cloudy SCT190 BKN210 80.6 71.6 74% 85 29.86 0.0
30 21:15 SE 7 10.00 Partly Cloudy FEW150 SCT180 SCT200 80.6 71.6 74% 85 29.86 0.0
30 20:55 SE 6 10.00 Mostly Cloudy BKN180 BKN200 80.6 73.4 79% 85 29.85 0.0
30 20:35 SE 8 10.00 Partly Cloudy SCT190 SCT210 80.6 73.4 79% 85 29.84 0.0
30 20:15 SE 8 10.00 Partly Cloudy SCT200 80.6 73.4 79% 85 29.84 0.0
30 19:55 SE 8 G 14 10.00 A Few Clouds FEW180 82.4 73.4 74% 88 29.84 0.0
30 19:35 SE 9 10.00 Fair CLR 84.2 73.4 70% 91 29.84 0.0
30 19:15 SE 8 10.00 Fair CLR 84.2 75.2 74% 92 29.84 0.0
30 18:55 SE 9 10.00 Fair CLR 86 75.2 70% 95 29.84 0.0
30 18:35 SE 8 10.00 Fair CLR 86 75.2 70% 95 29.84 0.0
30 18:15 SE 8 10.00 Fair CLR 86 75.2 70% 95 29.84 0.0
30 17:55 SE 8 10.00 Fair CLR 86 75.2 70% 95 29.83 0.0
30 17:35 SE 9 10.00 Fair CLR 86 75.2 70% 95 29.83 0.0
30 17:15 SE 10 9.00 Fair CLR 86 73.4 66% 93 29.84 0.0
30 16:55 SE 8 G 14 10.00 Fair CLR 86 73.4 66% 93 29.84 0.0
30 16:35 SE 10 10.00 Fair CLR 84.2 71.6 66% 90 29.84 0.0
30 16:15 SE 8 10.00 Fair CLR 82.4 71.6 70% 87 29.85 0.0
30 15:55 SE 7 10.00 Fair CLR 82.4 71.6 70% 87 29.86 0.0
30 15:35 SE 9 10.00 Fair CLR 82.4 69.8 66% 86 29.86 0.0
30 15:15 SE 10 10.00 Fair CLR 80.6 69.8 70% 84 29.86 0.0
30 14:55 S 9 G 16 10.00 Fair CLR 80.6 68 66% 83 29.87 0.0
30 14:35 SE 9 10.00 Fair CLR 80.6 69.8 70% 84 29.88 0.0
30 14:15 SE 7 10.00 Fair CLR 78.8 69.8 74% 81 29.88 0.0
30 13:55 SE 9 10.00 Fair CLR 78.8 69.8 74% 81 29.88 0.0
30 13:35 SE 6 10.00 Fair CLR 78.8 69.8 74% 81 29.89 0.0
30 13:15 SE 7 10.00 Fair CLR 77 71.6 83% 78 29.88 0.0
30 12:55 SE 8 10.00 Fair CLR 78.8 69.8 74% 81 29.89 0.0
30 12:35 S 5 10.00 Fair CLR 77 71.6 83% 78 29.89 0.0
30 12:15 SW 6 G 14 10.00 Fair CLR 77 69.8 79% 79 29.89 0.0
30 11:55 W 5 10.00 Light Rain FEW085 SCT120 75.2 69.8 83% 75 29.89 0.0 0.01
30 11:15 SW 6 10.00 Partly Cloudy FEW060 SCT120 77 68 74% 79 29.89 0.0
30 10:55 W 9 10.00 A Few Clouds FEW130 75.2 68 78% 76 29.88 0.0
30 10:35 SW 13 G 18 10.00 Fair CLR 75.2 66.2 74% 77 29.88 0.0
30 10:15 SW 12 G 21 10.00 Fair CLR 73.4 68 83% 29.87 0.0
30 09:55 SW 12 0.00 A Few Clouds FEW029 FEW060 FEW065 71.6 68 88% 29.88 0.0 0.04
30 09:35 SW 9 G 21 5.00 Light Rain CLR 75.2 64.4 69% 77 29.87 0.0
30 09:15 SW 14 G 23 10.00 Fair CLR 77 62.6 61% 79 29.88 0.0
30 08:55 SW 17 G 24 10.00 A Few Clouds FEW110 78.8 62.6 58% 80 29.87 0.0
30 08:35 SW 17 G 25 10.00 Fair CLR 78.8 62.6 58% 80 29.87 0.0
30 07:55 S 13 G 20 10.00 Partly Cloudy SCT110 SCT160 77 62.6 61% 79 29.88 0.0
30 07:35 SW 13 10.00 A Few Clouds FEW140 FEW160 77 60.8 57% 79 29.87 0.0
30 07:15 SW 15 G 23 10.00 A Few Clouds FEW140 FEW160 78.8 60.8 54% 80 29.86 0.0
30 06:55 SW 15 G 22 10.00 Fair CLR 78.8 60.8 54% 80 29.85 0.0
30 06:35 S 13 G 28 10.00 A Few Clouds FEW170 FEW210 78.8 60.8 54% 80 29.85 0.0
30 06:15 SW 16 G 23 10.00 A Few Clouds FEW170 78.8 60.8 54% 80 29.86 0.0
30 05:55 SW 14 G 22 10.00 Fair CLR 78.8 62.6 58% 80 29.86 0.0
30 05:35 SW 14 G 21 10.00 Mostly Cloudy BKN190 BKN210 77 62.6 61% 79 29.86 0.0
30 05:15 S 15 G 22 10.00 Overcast OVC190 77 62.6 61% 79 29.86 0.0
30 04:55 S 13 G 21 10.00 Overcast OVC180 77 62.6 61% 79 29.86 0.0
30 04:35 S 13 10.00 Overcast OVC180 77 62.6 61% 79 29.86 0.0
30 04:15 S 14 G 21 10.00 Overcast OVC170 77 62.6 61% 79 29.87 0.0
30 03:55 S 14 G 21 10.00 Mostly Cloudy BKN170 77 62.6 61% 79 29.86 0.0
30 03:35 S 14 10.00 Fair CLR 77 62.6 61% 79 29.86 0.0
30 03:15 S 15 10.00 Fair CLR 77 62.6 61% 79 29.86 0.0
30 02:55 S 15 10.00 Fair CLR 77 62.6 61% 79 29.86 0.0
30 02:35 S 15 G 22 10.00 Fair CLR 77 64.4 65% 79 29.86 0.0
30 02:15 S 14 10.00 Fair CLR 77 64.4 65% 79 29.86 0.0
30 01:55 S 15 G 21 10.00 Fair CLR 77 64.4 65% 79 29.87 0.0
30 01:35 S 13 G 20 10.00 Fair CLR 77 64.4 65% 79 29.87 0.0
30 01:15 S 14 G 22 10.00 Fair CLR 77 66.2 69% 79 29.87 0.0
30 00:55 S 15 10.00 Fair CLR 77 66.2 69% 79 29.87 0.0
30 00:35 S 15 G 21 10.00 Fair CLR 77 66.2 69% 79 29.87 0.0
30 00:15 S 15 G 23 10.00 Fair CLR 77 66.2 69% 79 29.87 0.0
29 23:55 S 14 G 22 10.00 Fair CLR 77 66.2 69% 79 29.87 0.0
29 23:35 S 16 G 23 10.00 Fair CLR 77 66.2 69% 79 29.87 0.0
29 23:15 S 16 10.00 Fair CLR 78.8 66.2 65% 81 29.87 0.0
29 22:55 S 14 G 20 10.00 Fair CLR 78.8 66.2 65% 81 29.87 0.0
29 22:35 S 15 G 22 10.00 Fair CLR 78.8 66.2 65% 81 29.87 0.0
29 22:15 S 16 10.00 Fair CLR 78.8 68 70% 81 29.87 0.0
29 21:55 S 14 10.00 Fair CLR 78.8 68 70% 81 29.87 0.0
29 21:35 S 14 10.00 Fair CLR 78.8 68 70% 81 29.87 0.0
29 21:15 S 14 G 21 10.00 A Few Clouds FEW140 78.8 68 70% 81 29.86 0.0
29 20:55 S 13 G 20 10.00 Partly Cloudy SCT220 78.8 68 70% 81 29.86 0.0
29 20:35 S 15 10.00 Mostly Cloudy SCT210 BKN230 78.8 68 70% 81 29.84 0.0
29 20:15 S 14 G 21 10.00 Mostly Cloudy BKN210 78.8 69.8 74% 81 29.84 0.0
29 19:55 S 14 10.00 A Few Clouds FEW150 FEW210 80.6 69.8 70% 84 29.85 0.0
29 19:35 S 14 G 21 10.00 A Few Clouds FEW150 FEW190 80.6 69.8 70% 84 29.85 0.0
29 19:15 S 15 G 23 10.00 A Few Clouds FEW150 FEW190 80.6 69.8 70% 84 29.85 0.0
29 18:55 S 13 G 22 10.00 Fair CLR 80.6 69.8 70% 84 29.85 0.0
29 18:35 S 15 G 21 10.00 Fair CLR 80.6 69.8 70% 84 29.85 0.0
29 18:15 S 15 G 22 10.00 Fair CLR 82.4 69.8 66% 86 29.86 0.0
29 17:55 S 13 G 23 10.00 Fair CLR 82.4 69.8 66% 86 29.86 0.0
29 17:35 S 15 G 23 10.00 Fair CLR 84.2 69.8 62% 88 29.86 0.0
29 17:15 S 15 10.00 Fair CLR 84.2 71.6 66% 90 29.87 0.0
29 16:55 S 15 G 24 10.00 Fair CLR 84.2 69.8 62% 88 29.88 0.0
29 16:35 S 15 G 26 10.00 Fair CLR 82.4 69.8 66% 86 29.88 0.0
29 16:15 S 13 G 25 10.00 Fair CLR 82.4 69.8 66% 86 29.89 0.0
29 15:55 S 17 G 24 10.00 Fair CLR 80.6 68 66% 83 29.89 0.0
29 15:35 SE 14 G 20 10.00 Fair CLR 78.8 68 70% 81 29.91 0.0
29 15:15 SE 13 G 21 10.00 Fair CLR 77 66.2 69% 79 29.93 0.0
29 14:55 SE 15 10.00 Fair CLR 75.2 66.2 74% 77 29.94 0.0
29 14:35 SE 13 10.00 Fair CLR 73.4 66.2 78% 29.96 0.0
29 14:15 SE 13 10.00 Fair CLR 73.4 64.4 74% 29.96 0.0
29 13:55 SE 8 10.00 Fair CLR 73.4 64.4 74% 29.97 0.0
29 13:15 S 14 10.00 Fair CLR 71.6 64.4 78% 29.96 0.0
29 12:55 SE 10 G 16 10.00 Fair CLR 69.8 64.4 83% 29.97 0.0
29 12:35 SE 13 10.00 Fair CLR 68 64.4 88% 29.97 0.0
29 11:55 SE 9 10.00 A Few Clouds FEW100 FEW120 66.2 62.6 88% 30.04 0.0
29 11:35 E 5 10.00 A Few Clouds FEW090 FEW120 66.2 62.6 88% 30.08 0.0
29 11:15 NE 8 10.00 Fair CLR 66.2 62.6 88% 30.1 0.0
29 10:55 NE 7 G 14 10.00 Fair CLR 66.2 62.6 88% 30.08 0.0
29 10:35 N 12 10.00 Light Rain SCT090 SCT120 68 62.6 83% 30.09 0.0
29 10:15 NW 18 G 30 10.00 Mostly Cloudy BKN090 69.8 60.8 73% 30.1 0.0
29 09:55 S 8 10.00 Fair CLR 69.8 60.8 73% 30.03 0.0
29 09:35 S 12 10.00 Fair CLR 69.8 60.8 73% 30.02 0.0
29 09:15 S 12 10.00 A Few Clouds FEW095 FEW120 69.8 60.8 73% 30.02 0.0
29 08:55 S 10 10.00 Fair CLR 69.8 60.8 73% 30.03 0.0
29 08:35 S 12 10.00 Fair CLR 68 60.8 78% 30.03 0.0
29 08:15 S 14 G 20 10.00 Fair CLR 68 60.8 78% 30.03 0.0
29 07:55 S 7 G 16 10.00 Fair CLR 68 60.8 78% 30.03 0.0
29 07:35 S 10 10.00 Fair CLR 68 59 73% 30.04 0.0
29 07:15 S 9 10.00 A Few Clouds FEW190 66.2 59 78% 30.04 0.0
29 06:55 S 12 10.00 Mostly Cloudy FEW170 BKN190 BKN210 68 59 73% 30.04 0.0
29 06:35 S 8 10.00 Mostly Cloudy FEW170 BKN200 66.2 59 78% 30.04 0.0
29 06:15 S 8 10.00 Fair CLR 66.2 60.8 83% 30.03 0.0
29 05:55 S 8 0.00 Fair CLR 66.2 60.8 83% 30.02 0.0
29 05:35 S 8 10.00 Fair CLR 66.2 60.8 83% 30.04 0.0
29 05:15 S 8 10.00 Fair CLR 66.2 60.8 83% 30.05 0.0
29 04:55 S 6 10.00 Fair CLR 64.4 60.8 88% 30.06 0.0
29 04:35 S 6 10.00 Fair CLR 64.4 60.8 88% 30.05 0.0
29 04:15 S 6 10.00 Fair CLR 64.4 60.8 88% 30.05 0.0
29 03:55 S 7 10.00 Fair CLR 64.4 60.8 88% 30.05 0.0
29 03:35 SE 7 10.00 Fair CLR 64.4 60.8 88% 30.05 0.0
29 03:15 SE 7 10.00 Fair CLR 66.2 60.8 83% 30.06 0.0
29 02:55 SE 7 10.00 Fair CLR 66.2 60.8 83% 30.07 0.0
29 02:35 SE 6 10.00 Fair CLR 66.2 62.6 88% 30.06 0.0
29 02:20 SE 7 10.00 Fair CLR 66.2 62.6 88% 30.06 0.0
29 01:55 SE 8 10.00 Fair CLR 68 62.6 83% 30.06 0.0
29 01:35 S 3 10.00 Fair CLR 68 62.6 83% 30.07 0.0
29 01:15 SE 6 10.00 Fair CLR 68 62.6 83% 30.07 0.0
29 00:55 SE 7 10.00 Fair CLR 68 62.6 83% 30.06 0.0
29 00:35 S 7 10.00 Fair CLR 68 62.6 83% 30.07 0.0
29 00:15 S 8 10.00 Fair CLR 68 62.6 83% 30.07 0.0
28 23:55 SE 6 10.00 Fair CLR 68 62.6 83% 30.07 0.0
28 23:35 SE 6 10.00 Fair CLR 69.8 62.6 78% 30.07 0.0
28 23:15 SE 6 10.00 Fair CLR 69.8 62.6 78% 30.07 0.0
28 22:55 S 7 10.00 Fair CLR 69.8 62.6 78% 30.07 0.0
28 22:35 SE 6 10.00 Fair CLR 69.8 62.6 78% 30.08 0.0
28 22:20 SE 5 10.00 Fair CLR 69.8 64.4 83% 30.08 0.0
28 21:50 S 7 10.00 Fair CLR 71.6 64.4 78% 30.08 0.0
28 21:35 SE 6 10.00 Fair CLR 71.6 64.4 78% 30.08 0.0
28 21:15 SE 6 10.00 Fair CLR 73.4 64.4 74% 30.07 0.0
28 20:35 SE 6 10.00 Fair CLR 75.2 64.4 69% 77 30.06 0.0
28 20:15 SE 5 10.00 Fair CLR 75.2 64.4 69% 77 30.06 0.0
28 19:55 SE 3 10.00 Fair CLR 77 64.4 65% 79 30.07 0.0
28 19:35 SE 5 10.00 Fair CLR 77 64.4 65% 79 30.07 0.0
28 19:15 S 5 10.00 Fair CLR 78.8 64.4 61% 81 30.07 0.0
28 18:55 S 6 10.00 Fair CLR 78.8 64.4 61% 81 30.07 0.0
28 18:35 S 6 10.00 Fair CLR 80.6 62.6 54% 82 30.08 0.0
28 18:15 S 5 10.00 Fair CLR 80.6 62.6 54% 82 30.09 0.0
28 17:55 SW 7 10.00 Fair CLR 82.4 62.6 51% 83 30.09 0.0
28 17:35 S 8 10.00 Fair CLR 82.4 62.6 51% 83 30.08 0.0
28 17:15 S 5 10.00 Fair CLR 80.6 62.6 54% 82 30.08 0.0
28 16:55 SW 6 10.00 Fair CLR 82.4 60.8 48% 83 30.09 0.0
28 16:35 SW 7 10.00 Fair CLR 82.4 62.6 51% 83 30.09 0.0
28 16:15 SW 9 10.00 Fair CLR 82.4 62.6 51% 83 30.1 0.0
28 15:55 SW 7 10.00 A Few Clouds FEW050 82.4 62.6 51% 83 30.1 0.0
28 15:35 SW 6 10.00 A Few Clouds FEW050 82.4 60.8 48% 83 30.1 0.0
28 15:15 SW 6 G 13 10.00 A Few Clouds FEW050 82.4 60.8 48% 83 30.11 0.0
Date Time (cdt) Wind (mph) Vis. (mi.) Weather Sky Cond. Air Dwpt Max. Min. Relative Humidity Wind Chill (°F) Heat Index (°F) altimeter (in) sea level (mb) 1 hr 3 hr 6 hr
6 hour
Temperature (ºF) Pressure Precipitation (in)